Time;durP1;ratioP1;P1;durP2;ratioP2;P2;SDS_P1;SDS_P2;PMS_P1;PMS_P2;Temp;Humidity;BMP_temperature;BMP_pressure;BME280_temperature;BME280_humidity;BME280_pressure;Samples;Min_cycle;Max_cycle;Signal;HPM_P1;HPM_P2
2021/12/29 00:00:34;;;;;;;22.90;14.13;;;;;;;1.29;92.32;96928.20;1712994;83;20979;-73
2021/12/29 00:03:03;;;;;;;26.65;15.23;;;;;;;1.31;92.42;96926.46;1716238;83;20994;-73
2021/12/29 00:05:31;;;;;;;27.50;14.93;;;;;;;1.35;92.52;96931.20;1714529;83;21314;-73
2021/12/29 00:07:58;;;;;;;29.67;15.63;;;;;;;1.38;92.54;96930.31;1717937;83;21412;-72
2021/12/29 00:10:25;;;;;;;27.50;15.55;;;;;;;1.41;92.49;96937.66;1718120;83;20982;-72
2021/12/29 00:12:53;;;;;;;23.75;14.38;;;;;;;1.45;92.39;96939.80;1719261;83;20970;-72
2021/12/29 00:15:27;;;;;;;24.90;13.90;;;;;;;1.45;92.44;96928.05;1715598;83;21629;-72
2021/12/29 00:17:57;;;;;;;23.07;14.17;;;;;;;1.51;92.63;96925.81;1717340;83;21424;-73
2021/12/29 00:20:29;;;;;;;24.60;14.90;;;;;;;1.48;92.83;96923.23;1716770;83;21665;-72
2021/12/29 00:23:01;;;;;;;26.73;15.00;;;;;;;1.54;92.76;96941.47;1712715;83;20994;-72
2021/12/29 00:25:28;;;;;;;24.55;14.58;;;;;;;1.54;92.58;96941.47;1716056;82;20990;-71
2021/12/29 00:27:55;;;;;;;27.95;14.83;;;;;;;1.52;92.41;96937.98;1719932;81;20943;-76
2021/12/29 00:30:23;;;;;;;23.60;14.73;;;;;;;1.53;92.61;96938.44;1718602;82;20930;-76
2021/12/29 00:32:57;;;;;;;23.23;13.60;;;;;;;1.49;92.34;96944.11;1720159;83;21019;-78
2021/12/29 00:35:43;;;;;;;23.62;13.72;;;;;;;1.43;92.04;96944.18;1715550;83;21003;-78
2021/12/29 00:38:27;;;;;;;26.05;14.10;;;;;;;1.38;92.00;96944.23;1714468;81;21404;-75
2021/12/29 00:41:15;;;;;;;23.60;14.33;;;;;;;1.34;92.33;96944.27;1741015;82;20966;-75
2021/12/29 00:43:59;;;;;;;28.12;14.80;;;;;;;1.35;92.22;96945.98;1720244;82;21014;-76
2021/12/29 00:46:44;;;;;;;25.50;15.10;;;;;;;1.30;92.38;96944.74;1702687;82;21083;-76
2021/12/29 00:49:12;;;;;;;27.75;14.25;;;;;;;1.29;92.50;96940.41;1701871;84;21077;-76
2021/12/29 00:51:38;;;;;;;25.92;14.20;;;;;;;1.29;92.48;96932.13;1701680;84;20985;-76
2021/12/29 00:54:05;;;;;;;29.12;14.28;;;;;;;1.26;92.60;96933.47;1702251;83;21061;-77
2021/12/29 00:56:31;;;;;;;30.92;17.15;;;;;;;1.26;92.79;96932.17;1701975;84;21084;-77
2021/12/29 00:58:58;;;;;;;28.62;15.40;;;;;;;1.25;92.69;96927.80;1701847;83;21038;-77
2021/12/29 01:01:24;;;;;;;31.05;16.65;;;;;;;1.22;92.85;96926.98;1701869;84;20994;-77
2021/12/29 01:03:51;;;;;;;30.95;16.42;;;;;;;1.20;92.63;96923.06;1701906;84;21065;-77
2021/12/29 01:06:17;;;;;;;30.60;16.73;;;;;;;1.20;92.81;96920.92;1702323;83;21447;-77
2021/12/29 01:08:44;;;;;;;33.78;16.67;;;;;;;1.15;93.27;96923.13;1701822;83;21444;-76
2021/12/29 01:11:11;;;;;;;32.40;16.50;;;;;;;1.13;93.30;96914.89;1702046;83;20985;-77
2021/12/29 01:13:45;;;;;;;33.20;16.85;;;;;;;1.14;92.81;96915.30;1701745;83;21025;-76
2021/12/29 01:18:35;;;;;;;32.35;17.32;;;;;;;1.12;92.91;96911.86;1701487;83;21416;-78
2021/12/29 01:21:03;;;;;;;32.95;16.90;;;;;;;1.14;92.75;96916.19;1701851;83;20989;-78
2021/12/29 01:23:30;;;;;;;31.23;16.45;;;;;;;1.15;92.77;96920.95;1701925;84;20998;-78
2021/12/29 01:25:56;;;;;;;35.88;17.10;;;;;;;1.17;92.63;96915.29;1719206;83;21017;-78
2021/12/29 01:28:23;;;;;;;31.37;16.73;;;;;;;1.18;92.78;96911.80;1731098;82;20954;-78
2021/12/29 01:30:50;;;;;;;33.88;16.37;;;;;;;1.21;92.91;96914.38;1730980;81;21360;-78
2021/12/29 01:33:16;;;;;;;29.42;15.38;;;;;;;1.28;92.83;96919.95;1730081;82;21010;-77
2021/12/29 01:35:42;;;;;;;29.45;15.05;;;;;;;1.30;92.92;96922.09;1730794;83;21048;-77
2021/12/29 01:38:10;;;;;;;29.67;15.03;;;;;;;1.35;93.07;96920.77;1731007;82;21383;-78
2021/12/29 01:40:39;;;;;;;25.75;13.53;;;;;;;1.42;93.14;96917.19;1706025;83;21447;-78
2021/12/29 01:43:09;;;;;;;27.05;14.45;;;;;;;1.47;93.15;96912.37;1701854;84;21049;-77
2021/12/29 01:45:37;;;;;;;28.38;13.10;;;;;;;1.50;93.20;96915.80;1710878;82;21053;-78
2021/12/29 01:48:06;;;;;;;29.77;14.90;;;;;;;1.53;93.27;96913.63;1753599;81;21002;-78
2021/12/29 01:50:33;;;;;;;27.13;14.13;;;;;;;1.52;93.04;96915.36;1769711;81;21017;-79
2021/12/29 01:53:07;;;;;;;28.10;13.72;;;;;;;1.50;92.94;96911.88;1769698;81;21005;-78
2021/12/29 01:55:31;;;;;;;25.08;14.50;;;;;;;1.50;92.90;96908.43;1768666;81;21017;-78
2021/12/29 01:57:59;;;;;;;25.00;14.00;;;;;;;1.47;92.83;96907.14;1756638;81;21103;-78
2021/12/29 02:00:30;;;;;;;24.80;14.65;;;;;;;1.47;92.92;96904.53;1739234;82;20973;-78
2021/12/29 02:02:57;;;;;;;24.02;14.40;;;;;;;1.43;92.71;96903.28;1739412;82;21052;-77
2021/12/29 02:05:24;;;;;;;24.67;14.13;;;;;;;1.39;92.62;96910.72;1739275;82;21028;-78
2021/12/29 02:07:50;;;;;;;22.77;13.18;;;;;;;1.36;92.79;96906.82;1739134;82;21036;-78
2021/12/29 02:10:20;;;;;;;27.52;15.32;;;;;;;1.33;92.87;96901.66;1754013;81;21009;-78
2021/12/29 02:12:48;;;;;;;24.75;14.50;;;;;;;1.30;92.88;96897.76;1769665;81;21044;-78
2021/12/29 02:15:15;;;;;;;23.35;14.20;;;;;;;1.27;93.05;96895.16;1769517;81;20966;-78
2021/12/29 02:17:42;;;;;;;23.85;13.60;;;;;;;1.27;93.24;96897.78;1769572;81;21055;-78
2021/12/29 02:20:14;;;;;;;22.80;13.30;;;;;;;1.26;93.13;96884.31;1769623;80;21392;-78
2021/12/29 02:22:45;;;;;;;23.30;12.75;;;;;;;1.23;93.38;96887.81;1747811;81;21013;-78
2021/12/29 02:25:31;;;;;;;23.25;13.45;;;;;;;1.22;93.25;96893.05;1750089;80;21277;-78
2021/12/29 02:27:55;;;;;;;24.85;13.60;;;;;;;1.23;93.22;96887.81;1772357;81;21073;-78
2021/12/29 02:30:26;;;;;;;25.37;13.05;;;;;;;1.24;93.09;96883.47;1763844;81;21043;-78
2021/12/29 02:32:54;;;;;;;23.92;14.53;;;;;;;1.24;93.21;96884.31;1764915;81;21119;-78
2021/12/29 02:35:22;;;;;;;23.30;13.62;;;;;;;1.24;93.28;96878.25;1764794;81;21059;-78
2021/12/29 02:37:49;;;;;;;21.40;12.95;;;;;;;1.20;93.48;96873.48;1756376;81;21397;-78
2021/12/29 02:40:16;;;;;;;21.25;13.58;;;;;;;1.20;93.25;96868.72;1727994;83;20988;-78
2021/12/29 02:42:43;;;;;;;26.10;13.88;;;;;;;1.19;93.35;96865.23;1727187;83;20984;-78
2021/12/29 02:45:15;;;;;;;26.40;14.65;;;;;;;1.21;93.20;96853.05;1737555;82;20998;-77
2021/12/29 02:47:43;;;;;;;25.45;14.63;;;;;;;1.23;93.57;96851.70;1745471;81;21065;-78
2021/12/29 02:50:14;;;;;;;27.65;14.45;;;;;;;1.22;93.68;96846.06;1755747;81;20966;-77
2021/12/29 02:52:39;;;;;;;27.42;15.03;;;;;;;1.24;93.67;96839.10;1761433;81;21412;-77
2021/12/29 02:55:06;;;;;;;24.37;14.07;;;;;;;1.25;93.84;96859.94;1769741;81;21002;-78
2021/12/29 02:57:33;;;;;;;26.48;14.63;;;;;;;1.29;93.79;96864.71;1769618;81;20982;-78
2021/12/29 02:59:59;;;;;;;25.92;14.87;;;;;;;1.32;93.64;96864.66;1760092;81;20998;-78
2021/12/29 03:02:25;;;;;;;29.63;15.53;;;;;;;1.33;93.68;96855.09;1739411;82;21014;-78
2021/12/29 03:04:56;;;;;;;29.07;15.68;;;;;;;1.35;93.77;96863.33;1739245;82;21439;-78
2021/12/29 03:07:22;;;;;;;24.23;15.20;;;;;;;1.36;93.93;96857.22;1739313;82;21493;-78
2021/12/29 03:09:48;;;;;;;23.90;13.80;;;;;;;1.40;94.13;96848.91;1739323;82;20989;-78
2021/12/29 03:12:15;;;;;;;26.80;15.60;;;;;;;1.41;94.20;96856.72;1739872;81;21009;-78
2021/12/29 03:14:54;;;;;;;25.27;15.00;;;;;;;1.42;94.13;96851.92;1739256;82;21130;-78
2021/12/29 03:17:21;;;;;;;24.57;14.45;;;;;;;1.42;93.97;96836.72;1739195;82;21654;-78
2021/12/29 03:19:47;;;;;;;24.72;14.33;;;;;;;1.40;94.08;96839.77;1739184;82;20981;-78
2021/12/29 03:22:14;;;;;;;22.60;14.23;;;;;;;1.37;93.94;96849.80;1739224;82;21040;-78
2021/12/29 03:24:41;;;;;;;20.90;13.10;;;;;;;1.35;93.82;96842.44;1756418;81;20994;-78
2021/12/29 03:27:08;;;;;;;22.98;12.78;;;;;;;1.31;93.66;96844.66;1786296;79;21009;-76
2021/12/29 03:29:34;;;;;;;22.48;12.00;;;;;;;1.27;93.73;96846.45;1724302;83;20985;-77
2021/12/29 03:32:06;;;;;;;20.00;12.60;;;;;;;1.25;93.78;96842.97;1753743;82;21057;-78
2021/12/29 03:34:29;;;;;;;21.90;12.95;;;;;;;1.24;93.65;96845.16;1744781;82;20994;-76
2021/12/29 03:36:55;;;;;;;22.02;12.78;;;;;;;1.21;93.79;96846.52;1711698;81;21072;-76
2021/12/29 03:39:23;;;;;;;19.30;12.05;;;;;;;1.18;93.71;96847.42;1709817;83;21056;-76
2021/12/29 03:41:50;;;;;;;19.95;12.53;;;;;;;1.18;93.88;96843.94;1709880;83;20980;-77
2021/12/29 03:44:16;;;;;;;21.40;12.05;;;;;;;1.16;93.83;96849.16;1696464;83;21022;-76
2021/12/29 03:46:43;;;;;;;22.02;12.73;;;;;;;1.13;93.82;96845.27;1681404;84;21055;-76
2021/12/29 03:49:10;;;;;;;23.83;13.22;;;;;;;1.11;93.96;96847.48;1681439;85;21027;-76
2021/12/29 03:51:37;;;;;;;22.27;13.15;;;;;;;1.08;93.96;96845.77;1681472;85;20987;-76
2021/12/29 03:54:05;;;;;;;21.33;12.95;;;;;;;1.07;93.86;96849.72;1692153;83;21078;-77
2021/12/29 03:56:33;;;;;;;26.60;13.70;;;;;;;1.09;93.65;96847.52;1715546;83;21031;-75
2021/12/29 03:58:59;;;;;;;23.57;12.58;;;;;;;1.03;94.55;96856.27;1737092;83;21459;-75
2021/12/29 04:01:27;;;;;;;24.15;13.50;;;;;;;1.04;94.05;96850.16;1713057;83;21761;-75
2021/12/29 04:03:53;;;;;;;24.65;14.28;;;;;;;1.06;93.99;96850.14;1707543;83;21027;-77
2021/12/29 04:06:21;;;;;;;24.70;13.50;;;;;;;1.08;93.86;96850.98;1694698;83;21027;-76
2021/12/29 04:08:49;;;;;;;25.60;13.70;;;;;;;1.11;93.92;96850.08;1681317;85;20975;-76
2021/12/29 04:11:16;;;;;;;26.27;14.07;;;;;;;1.15;94.01;96838.73;1739199;82;20962;-76
2021/12/29 04:13:45;;;;;;;26.55;13.98;;;;;;;1.18;94.09;96841.33;1739165;82;21057;-76
2021/12/29 04:16:17;;;;;;;22.45;13.62;;;;;;;1.23;94.12;96841.27;1739130;82;21065;-78
2021/12/29 04:18:45;;;;;;;23.80;13.38;;;;;;;1.22;94.08;96842.15;1739099;81;21045;-77
2021/12/29 04:21:07;;;;;;;24.52;13.15;;;;;;;1.23;94.14;96840.84;1737880;82;21518;-77
2021/12/29 04:23:36;;;;;;;23.98;12.60;;;;;;;1.26;94.26;96843.85;1739166;82;21049;-78
2021/12/29 04:26:07;;;;;;;25.23;12.82;;;;;;;1.29;94.25;96842.06;1762567;80;21432;-75
2021/12/29 04:28:34;;;;;;;21.17;11.90;;;;;;;1.34;94.24;96830.70;1764643;81;21015;-76
2021/12/29 04:31:07;;;;;;;25.37;14.60;;;;;;;1.33;94.04;96832.91;1735473;81;21051;-77
2021/12/29 04:33:36;;;;;;;23.18;13.83;;;;;;;1.30;94.06;96824.20;1737024;82;21428;-77
2021/12/29 04:36:04;;;;;;;25.97;15.30;;;;;;;1.29;94.11;96815.96;1736615;82;21069;-77
2021/12/29 04:38:31;;;;;;;25.85;15.00;;;;;;;1.26;94.12;96813.41;1736754;82;21037;-77
2021/12/29 04:40:58;;;;;;;28.95;15.03;;;;;;;1.24;93.98;96822.98;1736840;82;21017;-77
2021/12/29 04:43:26;;;;;;;26.60;15.15;;;;;;;1.20;94.04;96816.06;1766577;81;21001;-77
2021/12/29 04:45:54;;;;;;;27.65;15.25;;;;;;;1.17;94.05;96814.35;1769793;81;21454;-77
2021/12/29 04:48:23;;;;;;;30.90;15.08;;;;;;;1.14;94.02;96822.66;1780556;80;21375;-77
2021/12/29 04:51:02;;;;;;;29.00;15.75;;;;;;;1.13;94.06;96820.94;1762878;81;21378;-76
2021/12/29 04:53:23;;;;;;;29.85;15.08;;;;;;;1.11;93.60;96822.69;1748368;82;21009;-76
2021/12/29 04:55:51;;;;;;;29.42;15.60;;;;;;;1.10;93.88;96834.01;1751338;80;21043;-76
2021/12/29 04:58:21;;;;;;;31.82;15.65;;;;;;;1.08;93.74;96830.56;1778642;80;21449;-77
2021/12/29 05:00:50;;;;;;;31.70;17.10;;;;;;;1.07;93.85;96831.45;1764053;80;21021;-77
2021/12/29 05:03:16;;;;;;;26.68;15.40;;;;;;;1.04;93.93;96826.67;1750095;82;21055;-77
2021/12/29 05:08:26;;;;;;;29.32;15.83;;;;;;;1.04;94.11;96836.27;1750719;80;21000;-76
2021/12/29 05:11:02;;;;;;;29.27;16.25;;;;;;;1.03;94.30;96838.00;1750019;82;21052;-76
2021/12/29 05:13:33;;;;;;;32.25;17.48;;;;;;;1.02;94.28;96829.75;1750086;82;20972;-76
2021/12/29 05:15:59;;;;;;;28.65;16.70;;;;;;;1.04;94.34;96829.73;1750107;82;21060;-76
2021/12/29 05:18:29;;;;;;;29.10;16.05;;;;;;;1.02;94.24;96827.14;1750574;80;21386;-76
2021/12/29 05:20:58;;;;;;;28.83;14.63;;;;;;;1.01;94.45;96816.28;1750124;82;21004;-76
2021/12/29 05:23:25;;;;;;;29.42;15.90;;;;;;;1.04;94.26;96823.22;1750172;81;21025;-76
2021/12/29 05:25:53;;;;;;;27.27;14.28;;;;;;;1.07;93.97;96815.80;1750101;82;21044;-77
2021/12/29 05:28:23;;;;;;;26.97;14.38;;;;;;;1.07;94.29;96815.34;1774379;80;21001;-76
2021/12/29 05:30:51;;;;;;;26.57;15.78;;;;;;;1.06;94.26;96808.39;1781000;80;21430;-77
2021/12/29 05:33:18;;;;;;;26.90;15.63;;;;;;;1.09;94.20;96807.50;1765593;80;21434;-76
2021/12/29 05:35:45;;;;;;;23.92;13.22;;;;;;;1.09;94.44;96808.37;1750103;81;21448;-77
2021/12/29 05:38:11;;;;;;;24.65;14.05;;;;;;;1.14;94.56;96814.84;1752179;80;21008;-78
2021/12/29 05:40:38;;;;;;;27.22;14.90;;;;;;;1.17;94.58;96818.73;1781143;80;20993;-77
2021/12/29 05:43:05;;;;;;;26.80;14.73;;;;;;;1.20;94.48;96817.37;1781130;80;20946;-77
2021/12/29 05:45:33;;;;;;;28.73;14.73;;;;;;;1.18;94.35;96817.41;1780832;80;21032;-77
2021/12/29 05:48:01;;;;;;;27.15;15.58;;;;;;;1.19;94.36;96819.56;1760038;80;20981;-77
2021/12/29 05:50:30;;;;;;;28.50;14.53;;;;;;;1.17;94.42;96828.70;1750013;82;21409;-76
2021/12/29 05:52:59;;;;;;;30.88;13.98;;;;;;;1.15;94.42;96829.17;1749965;82;21120;-76
2021/12/29 05:55:26;;;;;;;30.27;14.65;;;;;;;1.15;94.37;96838.73;1753968;81;20993;-76
2021/12/29 05:57:53;;;;;;;29.18;15.28;;;;;;;1.13;94.33;96840.52;1775838;81;21029;-76
2021/12/29 06:00:22;;;;;;;32.83;15.85;;;;;;;1.13;94.27;96845.27;1780635;80;21422;-77
2021/12/29 06:02:51;;;;;;;27.95;15.78;;;;;;;1.12;94.07;96851.84;1780863;80;21005;-77
2021/12/29 06:05:18;;;;;;;28.87;14.93;;;;;;;1.12;94.21;96857.06;1773753;80;21024;-77
2021/12/29 06:07:45;;;;;;;31.23;15.58;;;;;;;1.08;94.16;96850.98;1750182;80;21020;-77
2021/12/29 06:10:12;;;;;;;29.63;16.10;;;;;;;1.06;94.18;96843.63;1750170;82;21020;-78
2021/12/29 06:12:40;;;;;;;29.12;15.32;;;;;;;1.04;94.26;96850.16;1749983;82;21057;-78
2021/12/29 06:15:09;;;;;;;27.62;15.15;;;;;;;1.02;94.24;96849.32;1749981;82;21478;-77
2021/12/29 06:17:36;;;;;;;28.70;15.50;;;;;;;1.02;94.05;96849.32;1761884;80;21019;-77
2021/12/29 06:20:05;;;;;;;27.10;15.45;;;;;;;1.00;94.50;96850.22;1781553;80;21001;-77
2021/12/29 06:22:31;;;;;;;33.10;16.35;;;;;;;0.98;94.44;96842.40;1780791;80;21056;-77
2021/12/29 06:24:58;;;;;;;31.60;17.37;;;;;;;0.99;94.39;96844.13;1784781;79;20990;-77
2021/12/29 06:27:26;;;;;;;30.57;16.17;;;;;;;0.98;94.07;96845.44;1724763;83;21462;-77
2021/12/29 06:29:53;;;;;;;35.52;17.42;;;;;;;0.98;94.59;96846.73;1795845;79;20985;-77
2021/12/29 06:32:19;;;;;;;35.13;17.45;;;;;;;1.00;94.33;96836.71;1780855;80;21429;-77
2021/12/29 06:34:46;;;;;;;34.20;17.95;;;;;;;1.00;94.45;96832.80;1780872;80;20954;-77
2021/12/29 06:37:13;;;;;;;32.85;17.17;;;;;;;1.00;94.51;96828.04;1780943;80;21028;-77
2021/12/29 06:39:43;;;;;;;31.40;17.82;;;;;;;1.00;94.33;96829.34;1775702;80;21025;-77
2021/12/29 06:42:10;;;;;;;31.87;17.48;;;;;;;0.99;94.42;96827.63;1763809;80;21466;-77
2021/12/29 06:44:38;;;;;;;31.85;16.30;;;;;;;0.97;94.46;96824.14;1750032;82;21041;-77
2021/12/29 06:47:06;;;;;;;36.70;18.17;;;;;;;0.97;94.35;96826.75;1745755;82;21025;-77
2021/12/29 06:49:34;;;;;;;30.40;16.55;;;;;;;1.00;94.15;96833.25;1734206;82;21053;-77
2021/12/29 06:52:02;;;;;;;33.38;17.42;;;;;;;1.01;94.18;96824.12;1734371;82;20965;-77
2021/12/29 06:54:30;;;;;;;29.95;15.85;;;;;;;1.03;94.38;96821.46;1747789;81;21002;-77
2021/12/29 06:56:58;;;;;;;28.23;15.28;;;;;;;1.02;94.36;96824.53;1764421;81;21071;-78
2021/12/29 06:59:25;;;;;;;28.65;16.30;;;;;;;1.05;94.51;96835.38;1764505;81;20978;-78
2021/12/29 07:01:51;;;;;;;32.10;16.62;;;;;;;1.05;94.38;96846.66;1763302;81;20985;-77
2021/12/29 07:04:18;;;;;;;34.48;17.32;;;;;;;1.04;94.52;96833.20;1734184;83;21022;-77
2021/12/29 07:06:45;;;;;;;31.27;16.57;;;;;;;1.07;94.75;96845.80;1734389;83;20977;-78
2021/12/29 07:09:12;;;;;;;28.07;16.00;;;;;;;1.10;94.80;96836.19;1734206;82;21083;-79
2021/12/29 07:11:39;;;;;;;31.62;16.17;;;;;;;1.12;94.68;96838.79;1734290;82;21026;-78
2021/12/29 07:14:09;;;;;;;31.40;16.87;;;;;;;1.12;94.79;96834.88;1762917;81;20993;-78
2021/12/29 07:16:34;;;;;;;29.42;16.57;;;;;;;1.14;95.03;96844.84;1764409;80;21005;-78
2021/12/29 07:19:01;;;;;;;32.88;17.17;;;;;;;1.15;94.79;96848.75;1764479;81;21486;-79
2021/12/29 07:21:27;;;;;;;31.95;17.12;;;;;;;1.15;94.42;96834.83;1764580;81;20993;-78
2021/12/29 07:23:54;;;;;;;26.77;16.55;;;;;;;1.13;94.54;96832.69;1775116;81;20965;-78
2021/12/29 07:26:26;;;;;;;29.02;15.55;;;;;;;1.12;94.42;96840.94;1795125;79;20973;-78
2021/12/29 07:28:52;;;;;;;27.95;15.75;;;;;;;1.13;94.35;96835.30;1759296;80;21045;-78
2021/12/29 07:31:20;;;;;;;26.12;14.63;;;;;;;1.11;94.26;96837.03;1764503;80;20989;-78
2021/12/29 07:33:47;;;;;;;27.17;15.75;;;;;;;1.08;94.25;96832.72;1764601;80;21013;-78
2021/12/29 07:36:14;;;;;;;28.60;15.28;;;;;;;1.09;94.13;96828.38;1763645;81;21430;-78
2021/12/29 07:38:42;;;;;;;25.45;15.15;;;;;;;1.08;94.26;96837.94;1764598;81;21430;-78
2021/12/29 07:41:10;;;;;;;27.70;15.30;;;;;;;1.07;94.38;96836.21;1764546;81;21005;-78
2021/12/29 07:43:37;;;;;;;28.25;15.80;;;;;;;1.09;94.20;96838.38;1764582;81;22223;-78
2021/12/29 07:46:06;;;;;;;28.55;15.08;;;;;;;1.07;94.31;96838.82;1759146;81;21396;-79
2021/12/29 07:48:34;;;;;;;32.35;16.45;;;;;;;1.08;94.22;96834.48;1768097;81;21470;-78
2021/12/29 07:51:05;;;;;;;29.52;16.30;;;;;;;1.10;93.96;96844.02;1769740;81;20996;-78
2021/12/29 07:53:34;;;;;;;27.80;15.20;;;;;;;1.09;94.20;96840.99;1769670;81;21037;-78
2021/12/29 07:56:01;;;;;;;28.55;15.18;;;;;;;1.12;94.17;96848.77;1767793;80;20950;-78
2021/12/29 07:58:28;;;;;;;25.85;15.45;;;;;;;1.17;94.27;96843.52;1742832;81;21005;-79
2021/12/29 08:00:54;;;;;;;29.45;15.65;;;;;;;1.21;94.36;96851.75;1745023;82;21021;-79
2021/12/29 08:03:22;;;;;;;28.40;16.05;;;;;;;1.23;94.24;96857.80;1747540;81;21028;-79
2021/12/29 08:05:48;;;;;;;29.52;16.23;;;;;;;1.28;94.04;96854.70;1739227;82;20993;-78
2021/12/29 08:08:15;;;;;;;29.05;15.50;;;;;;;1.32;93.88;96858.13;1739941;81;21017;-78
2021/12/29 08:10:41;;;;;;;28.57;15.53;;;;;;;1.36;94.00;96858.53;1739323;82;20997;-78
2021/12/29 08:13:09;;;;;;;26.73;15.32;;;;;;;1.40;93.90;96864.14;1737144;82;21006;-78
2021/12/29 08:15:36;;;;;;;27.05;15.75;;;;;;;1.41;93.88;96859.80;1737194;83;21012;-78
2021/12/29 08:18:05;;;;;;;29.63;15.23;;;;;;;1.45;93.94;96863.64;1759721;81;21052;-78
2021/12/29 08:20:33;;;;;;;30.37;16.70;;;;;;;1.50;93.94;96864.88;1769622;81;21044;-79
2021/12/29 08:23:00;;;;;;;28.02;16.30;;;;;;;1.56;93.94;96867.87;1769761;81;21018;-76
2021/12/29 08:25:26;;;;;;;29.50;16.10;;;;;;;1.60;93.76;96856.94;1769894;81;21454;-78
2021/12/29 08:27:53;;;;;;;30.10;16.95;;;;;;;1.66;93.75;96872.56;1769807;81;21010;-76
2021/12/29 08:30:20;;;;;;;25.60;14.83;;;;;;;1.69;93.80;96864.23;1749634;81;21006;-77
2021/12/29 08:32:46;;;;;;;31.07;16.07;;;;;;;1.74;93.28;96875.92;1739558;82;21417;-77
2021/12/29 08:35:13;;;;;;;24.92;15.45;;;;;;;1.79;93.40;96875.88;1739447;82;21037;-77
2021/12/29 08:37:41;;;;;;;30.10;17.27;;;;;;;1.83;93.38;96873.20;1765163;80;20972;-77
2021/12/29 08:40:10;;;;;;;29.52;16.02;;;;;;;1.90;93.41;96876.59;1769756;81;21033;-77
2021/12/29 08:42:38;;;;;;;27.62;15.80;;;;;;;1.95;93.19;96866.95;1769797;81;20997;-77
2021/12/29 08:45:09;;;;;;;29.02;16.85;;;;;;;2.01;93.24;96867.75;1773130;80;20990;-77
2021/12/29 08:47:37;;;;;;;30.12;15.08;;;;;;;2.06;92.66;96862.02;1696721;83;21548;-77
2021/12/29 08:50:08;;;;;;;28.02;15.72;;;;;;;2.10;92.62;96859.78;1761627;80;21016;-77
2021/12/29 08:52:35;;;;;;;28.00;16.93;;;;;;;2.13;92.62;96858.88;1781263;80;20990;-77
2021/12/29 08:55:04;;;;;;;26.75;15.15;;;;;;;2.18;92.50;96851.41;1757510;79;21024;-77
2021/12/29 08:57:31;;;;;;;26.57;15.90;;;;;;;2.25;92.42;96852.18;1767542;80;20977;-77
2021/12/29 08:59:57;;;;;;;28.50;15.58;;;;;;;2.31;91.88;96856.43;1773928;80;21002;-78
2021/12/29 09:02:25;;;;;;;25.77;15.18;;;;;;;2.38;92.31;96852.39;1755866;80;20958;-78
2021/12/29 09:04:53;;;;;;;27.32;15.70;;;;;;;2.37;91.61;96840.67;1771214;80;21470;-77
2021/12/29 09:07:19;;;;;;;29.25;15.05;;;;;;;2.36;91.60;96840.23;1801105;80;20981;-78
2021/12/29 09:09:46;;;;;;;28.95;16.30;;;;;;;2.36;90.89;96836.30;1752626;79;21080;-78
2021/12/29 09:12:13;;;;;;;28.90;15.68;;;;;;;2.44;91.53;96844.03;1746198;79;21005;-78
2021/12/29 09:14:40;;;;;;;30.95;16.50;;;;;;;2.50;91.60;96847.41;1745383;81;21009;-77
2021/12/29 09:17:06;;;;;;;30.50;17.00;;;;;;;2.53;90.88;96844.35;1742619;81;21013;-77
2021/12/29 09:19:38;;;;;;;28.45;16.42;;;;;;;2.62;91.56;96840.28;1772183;79;21375;-77
2021/12/29 09:22:01;;;;;;;31.05;16.32;;;;;;;2.68;90.45;96843.22;1762836;80;21005;-76
2021/12/29 09:24:28;;;;;;;29.07;16.32;;;;;;;2.63;89.56;96840.70;1761317;80;20973;-77
2021/12/29 09:26:54;;;;;;;26.57;14.73;;;;;;;2.63;89.91;96839.38;1770100;80;20965;-77
2021/12/29 09:29:21;;;;;;;25.52;14.40;;;;;;;2.64;89.22;96842.41;1754495;80;20993;-77
2021/12/29 09:31:47;;;;;;;24.57;14.85;;;;;;;2.61;88.95;96838.09;1754466;80;20962;-77
2021/12/29 09:34:14;;;;;;;25.45;14.80;;;;;;;2.67;89.85;96839.76;1753425;80;20942;-78
2021/12/29 09:36:41;;;;;;;22.20;13.55;;;;;;;2.81;90.59;96838.64;1751652;81;21001;-78
2021/12/29 09:39:07;;;;;;;21.82;13.50;;;;;;;2.97;89.88;96825.72;1739317;82;21001;-77
2021/12/29 09:41:34;;;;;;;21.12;13.43;;;;;;;3.07;90.44;96832.09;1737525;82;21032;-78
2021/12/29 09:44:01;;;;;;;21.77;13.40;;;;;;;3.17;90.57;96823.17;1739998;81;21049;-77
2021/12/29 09:46:27;;;;;;;22.85;13.48;;;;;;;3.21;89.67;96808.27;1739537;81;21068;-78
2021/12/29 09:48:54;;;;;;;25.65;14.85;;;;;;;3.26;90.09;96802.48;1735970;82;21442;-78
2021/12/29 09:51:20;;;;;;;25.43;14.87;;;;;;;3.35;90.00;96810.60;1734097;83;21007;-77
2021/12/29 09:53:47;;;;;;;23.27;14.47;;;;;;;3.42;89.54;96805.23;1735228;81;21053;-77
2021/12/29 09:56:14;;;;;;;24.00;14.90;;;;;;;3.49;89.72;96815.12;1755972;80;21010;-77
2021/12/29 09:58:41;;;;;;;24.98;14.50;;;;;;;3.52;89.66;96816.38;1748144;81;20961;-77
2021/12/29 10:01:10;;;;;;;26.73;15.40;;;;;;;3.49;87.20;96812.97;1753308;81;21033;-78
2021/12/29 10:03:38;;;;;;;27.52;14.70;;;;;;;3.42;87.82;96814.41;1738147;81;21619;-77
2021/12/29 10:06:10;;;;;;;23.45;14.68;;;;;;;3.30;87.25;96818.56;1750948;81;20954;-77
2021/12/29 10:08:44;;;;;;;22.82;14.70;;;;;;;3.20;87.87;96821.79;1753189;81;21353;-78
2021/12/29 10:11:17;;;;;;;24.35;14.63;;;;;;;3.24;88.22;96818.69;1755515;81;21316;-78
2021/12/29 10:13:48;;;;;;;24.63;14.93;;;;;;;3.28;88.47;96822.98;1749249;81;21017;-78
2021/12/29 10:16:19;;;;;;;25.23;15.40;;;;;;;3.29;88.79;96826.85;1757528;81;21001;-77
2021/12/29 10:18:53;;;;;;;24.90;15.20;;;;;;;3.31;88.50;96816.36;1725547;82;20996;-77
2021/12/29 10:21:19;;;;;;;26.25;15.53;;;;;;;3.34;88.69;96813.69;1729792;83;21061;-77
2021/12/29 10:23:50;;;;;;;27.37;14.83;;;;;;;3.37;88.70;96810.98;1755763;80;21013;-78
2021/12/29 10:26:31;;;;;;;25.40;15.45;;;;;;;3.41;88.82;96807.88;1753730;80;21486;-76
2021/12/29 10:29:08;;;;;;;31.52;17.02;;;;;;;3.45;87.04;96806.06;1746993;81;21037;-76
2021/12/29 10:31:44;;;;;;;28.50;16.82;;;;;;;3.48;88.40;96806.01;1746828;81;21029;-76
2021/12/29 10:34:24;;;;;;;35.45;18.52;;;;;;;3.47;88.17;96799.02;1741363;80;21049;-76
2021/12/29 10:37:01;;;;;;;31.90;18.57;;;;;;;3.51;88.36;96802.00;1749519;81;21524;-76
2021/12/29 10:39:37;;;;;;;30.85;17.65;;;;;;;3.55;88.58;96791.44;1751395;81;21505;-77
2021/12/29 10:42:09;;;;;;;30.72;17.45;;;;;;;3.59;88.59;96791.36;1748017;81;20970;-76
2021/12/29 10:44:52;;;;;;;30.85;18.17;;;;;;;3.48;86.60;96791.60;1746385;81;21017;-76
2021/12/29 10:47:26;;;;;;;33.02;17.55;;;;;;;3.43;87.54;96783.39;1745194;81;20985;-75
2021/12/29 10:50:14;;;;;;;26.35;15.50;;;;;;;3.44;88.00;96792.09;1767010;79;21394;-75
2021/12/29 10:52:47;;;;;;;26.10;16.48;;;;;;;3.50;88.16;96790.67;1770371;79;21072;-77
2021/12/29 10:55:22;;;;;;;25.55;14.98;;;;;;;3.53;88.10;96785.35;1724517;82;21025;-76
2021/12/29 10:58:16;;;;;;;;;;;;;;;3.56;87.87;96781.80;1713463;83;21083;-75
2021/12/29 11:00:48;;;;;;;27.40;16.80;;;;;;;3.62;88.23;96782.13;1698597;84;20121;-76
2021/12/29 11:03:20;;;;;;;29.60;17.62;;;;;;;3.64;87.33;96782.52;1714073;83;21015;-76
2021/12/29 11:05:53;;;;;;;41.77;19.07;;;;;;;3.67;87.95;96777.22;1716007;84;21063;-76
2021/12/29 11:08:18;;;;;;;33.60;18.73;;;;;;;3.76;88.44;96773.53;1698654;83;21018;-76
2021/12/29 11:10:47;;;;;;;31.10;17.80;;;;;;;3.86;87.25;96778.09;1696880;82;20975;-76
2021/12/29 11:13:29;;;;;;;31.05;16.67;;;;;;;3.82;86.82;96781.71;1779095;79;20986;-76
2021/12/29 11:15:57;;;;;;;31.55;19.17;;;;;;;3.87;87.59;96776.35;1778666;79;20962;-76
2021/12/29 11:18:24;;;;;;;31.07;19.17;;;;;;;3.89;87.49;96779.35;1779498;79;21045;-76
2021/12/29 11:20:57;;;;;;;32.17;18.77;;;;;;;3.81;85.67;96776.91;1776536;79;20965;-76
2021/12/29 11:23:24;;;;;;;34.85;18.98;;;;;;;3.81;87.05;96780.84;1776685;78;21418;-76
2021/12/29 11:25:52;;;;;;;41.18;18.77;;;;;;;3.83;87.08;96784.73;1782652;79;21004;-76
2021/12/29 11:28:26;;;;;;;31.82;18.55;;;;;;;3.79;86.70;96780.45;1773760;79;20982;-76
2021/12/29 11:30:56;;;;;;;32.25;19.62;;;;;;;3.80;86.40;96780.86;1778090;79;20969;-76
2021/12/29 11:33:24;;;;;;;29.95;17.12;;;;;;;3.72;86.42;96773.17;1763742;80;21103;-76
2021/12/29 11:35:53;;;;;;;32.13;18.92;;;;;;;3.56;86.28;96776.13;1765389;80;20954;-76
2021/12/29 11:38:22;;;;;;;33.78;19.45;;;;;;;3.45;86.09;96782.05;1781389;79;20985;-76